sensor_id;sensor_type;location;lat;lon;timestamp;pressure;altitude;pressure_sealevel;temperature;humidity
75424;BME280;64005;55.160;36.002;2023-01-26T00:01:09;99935.44;;;-2.96;74.56
75424;BME280;64005;55.160;36.002;2023-01-26T00:03:37;99944.13;;;-2.88;74.48
75424;BME280;64005;55.160;36.002;2023-01-26T00:06:05;99939.75;;;-2.89;74.25
75424;BME280;64005;55.160;36.002;2023-01-26T00:08:35;99933.25;;;-2.88;74.55
75424;BME280;64005;55.160;36.002;2023-01-26T00:11:04;99943.91;;;-2.86;74.48
75424;BME280;64005;55.160;36.002;2023-01-26T00:13:32;99953.97;;;-2.87;74.45
75424;BME280;64005;55.160;36.002;2023-01-26T00:16:01;99942.25;;;-2.87;74.52
75424;BME280;64005;55.160;36.002;2023-01-26T00:18:31;99950.84;;;-2.90;74.41
75424;BME280;64005;55.160;36.002;2023-01-26T00:20:59;99949.38;;;-2.86;74.36
75424;BME280;64005;55.160;36.002;2023-01-26T00:23:28;99940.88;;;-2.96;74.52
75424;BME280;64005;55.160;36.002;2023-01-26T00:25:56;99949.88;;;-2.96;74.58
75424;BME280;64005;55.160;36.002;2023-01-26T00:28:24;99953.34;;;-2.89;74.57
75424;BME280;64005;55.160;36.002;2023-01-26T00:30:51;99956.16;;;-2.95;74.39
75424;BME280;64005;55.160;36.002;2023-01-26T00:33:18;99949.38;;;-2.86;74.46
75424;BME280;64005;55.160;36.002;2023-01-26T00:35:54;99941.00;;;-2.91;74.07
75424;BME280;64005;55.160;36.002;2023-01-26T00:38:22;99950.56;;;-2.82;74.25
75424;BME280;64005;55.160;36.002;2023-01-26T00:40:50;99951.63;;;-2.83;74.30
75424;BME280;64005;55.160;36.002;2023-01-26T00:43:17;99934.66;;;-2.85;74.31
75424;BME280;64005;55.160;36.002;2023-01-26T00:45:44;99936.81;;;-2.87;74.28
75424;BME280;64005;55.160;36.002;2023-01-26T00:48:12;99938.00;;;-2.83;74.40
75424;BME280;64005;55.160;36.002;2023-01-26T00:50:39;99932.94;;;-2.79;74.05
75424;BME280;64005;55.160;36.002;2023-01-26T00:53:08;99918.81;;;-2.88;74.27
75424;BME280;64005;55.160;36.002;2023-01-26T00:55:36;99926.19;;;-2.77;74.46
75424;BME280;64005;55.160;36.002;2023-01-26T00:58:05;99879.47;;;-3.10;74.30
75424;BME280;64005;55.160;36.002;2023-01-26T01:00:35;99926.91;;;-2.82;74.13
75424;BME280;64005;55.160;36.002;2023-01-26T01:03:03;99926.06;;;-2.82;74.23
75424;BME280;64005;55.160;36.002;2023-01-26T01:05:31;99912.06;;;-2.86;74.05
75424;BME280;64005;55.160;36.002;2023-01-26T01:07:59;99923.41;;;-2.89;74.09
75424;BME280;64005;55.160;36.002;2023-01-26T01:10:28;99936.56;;;-2.86;74.16
75424;BME280;64005;55.160;36.002;2023-01-26T01:12:55;99924.84;;;-2.86;74.03
75424;BME280;64005;55.160;36.002;2023-01-26T01:15:23;99924.47;;;-2.90;74.20
75424;BME280;64005;55.160;36.002;2023-01-26T01:17:51;99930.53;;;-2.88;74.03
75424;BME280;64005;55.160;36.002;2023-01-26T01:20:19;99934.06;;;-2.87;74.05
75424;BME280;64005;55.160;36.002;2023-01-26T01:22:46;99922.13;;;-2.86;73.96
75424;BME280;64005;55.160;36.002;2023-01-26T01:25:13;99922.34;;;-2.88;73.98
75424;BME280;64005;55.160;36.002;2023-01-26T01:27:42;99916.06;;;-2.88;74.09
75424;BME280;64005;55.160;36.002;2023-01-26T01:30:11;99897.47;;;-2.91;73.71
75424;BME280;64005;55.160;36.002;2023-01-26T01:32:39;99901.25;;;-2.92;74.02
75424;BME280;64005;55.160;36.002;2023-01-26T01:35:07;99899.59;;;-2.93;74.16
75424;BME280;64005;55.160;36.002;2023-01-26T01:37:35;99903.81;;;-2.97;74.07
75424;BME280;64005;55.160;36.002;2023-01-26T01:40:03;99905.34;;;-3.01;74.06
75424;BME280;64005;55.160;36.002;2023-01-26T01:42:32;99905.34;;;-3.01;73.96
75424;BME280;64005;55.160;36.002;2023-01-26T01:45:41;99892.78;;;-3.02;73.68
75424;BME280;64005;55.160;36.002;2023-01-26T01:48:18;99833.63;;;-3.50;73.96
75424;BME280;64005;55.160;36.002;2023-01-26T01:50:48;99835.38;;;-3.37;74.05
75424;BME280;64005;55.160;36.002;2023-01-26T01:53:19;99824.66;;;-3.50;73.74
75424;BME280;64005;55.160;36.002;2023-01-26T01:55:51;99867.16;;;-3.13;73.73
75424;BME280;64005;55.160;36.002;2023-01-26T01:58:20;99889.75;;;-2.94;73.77
75424;BME280;64005;55.160;36.002;2023-01-26T02:00:49;99887.63;;;-2.92;73.82
75424;BME280;64005;55.160;36.002;2023-01-26T02:03:18;99882.44;;;-2.94;73.88
75424;BME280;64005;55.160;36.002;2023-01-26T02:05:53;99838.09;;;-3.19;73.96
75424;BME280;64005;55.160;36.002;2023-01-26T02:08:25;99874.50;;;-2.95;73.74
75424;BME280;64005;55.160;36.002;2023-01-26T02:10:57;99876.16;;;-2.94;73.66
75424;BME280;64005;55.160;36.002;2023-01-26T02:13:26;99856.22;;;-3.06;73.80
75424;BME280;64005;55.160;36.002;2023-01-26T02:15:57;99858.59;;;-2.98;73.67
75424;BME280;64005;55.160;36.002;2023-01-26T02:18:27;99827.00;;;-3.17;73.64
75424;BME280;64005;55.160;36.002;2023-01-26T02:20:58;99859.69;;;-2.99;73.86
75424;BME280;64005;55.160;36.002;2023-01-26T02:23:46;99812.50;;;-3.30;73.97
75424;BME280;64005;55.160;36.002;2023-01-26T02:26:19;99852.94;;;-2.97;74.02
75424;BME280;64005;55.160;36.002;2023-01-26T02:28:47;99850.81;;;-2.95;73.71
75424;BME280;64005;55.160;36.002;2023-01-26T02:31:16;99857.69;;;-2.92;73.77
75424;BME280;64005;55.160;36.002;2023-01-26T02:33:45;99853.53;;;-2.95;73.78
75424;BME280;64005;55.160;36.002;2023-01-26T02:36:19;99845.16;;;-2.93;73.72
75424;BME280;64005;55.160;36.002;2023-01-26T02:38:56;99845.75;;;-2.91;73.70
75424;BME280;64005;55.160;36.002;2023-01-26T02:41:26;99846.56;;;-2.91;73.66
75424;BME280;64005;55.160;36.002;2023-01-26T02:44:09;99819.75;;;-3.05;73.69
75424;BME280;64005;55.160;36.002;2023-01-26T02:46:37;99840.06;;;-2.90;73.82
75424;BME280;64005;55.160;36.002;2023-01-26T02:49:05;99837.97;;;-2.88;73.69
75424;BME280;64005;55.160;36.002;2023-01-26T02:51:50;99837.56;;;-2.91;74.04
75424;BME280;64005;55.160;36.002;2023-01-26T02:54:17;99834.84;;;-2.91;73.83
75424;BME280;64005;55.160;36.002;2023-01-26T02:57:04;99831.84;;;-3.01;73.44
75424;BME280;64005;55.160;36.002;2023-01-26T02:59:31;99844.31;;;-2.94;73.72
75424;BME280;64005;55.160;36.002;2023-01-26T03:01:59;99840.56;;;-2.93;73.69
75424;BME280;64005;55.160;36.002;2023-01-26T03:04:27;99835.09;;;-2.93;73.72
75424;BME280;64005;55.160;36.002;2023-01-26T03:06:54;99835.69;;;-2.91;73.71
75424;BME280;64005;55.160;36.002;2023-01-26T03:09:22;99829.19;;;-2.90;73.84
75424;BME280;64005;55.160;36.002;2023-01-26T03:11:50;99825.63;;;-2.90;73.72
75424;BME280;64005;55.160;36.002;2023-01-26T03:14:19;99831.91;;;-2.90;73.57
75424;BME280;64005;55.160;36.002;2023-01-26T03:16:46;99836.28;;;-2.89;73.68
75424;BME280;64005;55.160;36.002;2023-01-26T03:19:14;99811.97;;;-3.02;73.79
75424;BME280;64005;55.160;36.002;2023-01-26T03:22:00;99828.75;;;-2.87;73.64
75424;BME280;64005;55.160;36.002;2023-01-26T03:24:44;99826.84;;;-2.86;73.71
75424;BME280;64005;55.160;36.002;2023-01-26T03:27:34;99827.91;;;-2.87;73.84
75424;BME280;64005;55.160;36.002;2023-01-26T03:30:05;99828.75;;;-2.87;73.67
75424;BME280;64005;55.160;36.002;2023-01-26T03:32:33;99830.16;;;-2.84;73.39
75424;BME280;64005;55.160;36.002;2023-01-26T03:35:01;99841.88;;;-2.84;73.63
75424;BME280;64005;55.160;36.002;2023-01-26T03:37:29;99819.50;;;-2.86;73.33
75424;BME280;64005;55.160;36.002;2023-01-26T03:40:02;99833.00;;;-2.79;73.46
75424;BME280;64005;55.160;36.002;2023-01-26T03:42:47;99838.25;;;-2.77;73.78
75424;BME280;64005;55.160;36.002;2023-01-26T03:45:33;99833.00;;;-2.79;73.48
75424;BME280;64005;55.160;36.002;2023-01-26T03:48:17;99831.38;;;-2.80;73.68
75424;BME280;64005;55.160;36.002;2023-01-26T03:51:02;99840.97;;;-2.77;73.52
75424;BME280;64005;55.160;36.002;2023-01-26T03:53:47;99825.69;;;-2.78;73.29
75424;BME280;64005;55.160;36.002;2023-01-26T03:56:32;99830.06;;;-2.77;73.60
75424;BME280;64005;55.160;36.002;2023-01-26T03:59:01;99832.78;;;-2.77;73.46
75424;BME280;64005;55.160;36.002;2023-01-26T04:01:35;99826.53;;;-2.78;73.58
75424;BME280;64005;55.160;36.002;2023-01-26T04:04:04;99829.84;;;-2.76;73.50
75424;BME280;64005;55.160;36.002;2023-01-26T04:06:50;99819.03;;;-2.83;73.57
75424;BME280;64005;55.160;36.002;2023-01-26T04:09:36;99832.22;;;-2.79;73.48
75424;BME280;64005;55.160;36.002;2023-01-26T04:12:05;99826.78;;;-2.79;73.70
75424;BME280;64005;55.160;36.002;2023-01-26T04:14:35;99824.41;;;-2.76;73.76
75424;BME280;64005;55.160;36.002;2023-01-26T04:17:21;99822.28;;;-2.74;73.58
75424;BME280;64005;55.160;36.002;2023-01-26T04:20:07;99825.03;;;-2.74;73.73
75424;BME280;64005;55.160;36.002;2023-01-26T04:22:52;99831.50;;;-2.75;73.75
75424;BME280;64005;55.160;36.002;2023-01-26T04:25:20;99822.50;;;-2.75;73.55
75424;BME280;64005;55.160;36.002;2023-01-26T04:27:48;99823.13;;;-2.73;73.54
75424;BME280;64005;55.160;36.002;2023-01-26T04:30:16;99819.31;;;-2.72;73.75
75424;BME280;64005;55.160;36.002;2023-01-26T04:32:45;99816.84;;;-2.74;73.53
75424;BME280;64005;55.160;36.002;2023-01-26T04:35:13;99821.22;;;-2.73;73.65
75424;BME280;64005;55.160;36.002;2023-01-26T04:37:40;99816.16;;;-2.69;73.51
75424;BME280;64005;55.160;36.002;2023-01-26T04:40:09;99819.69;;;-2.69;73.43
75424;BME280;64005;55.160;36.002;2023-01-26T04:42:36;99811.06;;;-2.66;73.48
75424;BME280;64005;55.160;36.002;2023-01-26T04:45:05;99821.38;;;-2.68;73.32
75424;BME280;64005;55.160;36.002;2023-01-26T04:47:33;99821.38;;;-2.68;73.64
75424;BME280;64005;55.160;36.002;2023-01-26T04:50:03;99816.50;;;-2.66;73.64
75424;BME280;64005;55.160;36.002;2023-01-26T04:52:31;99804.41;;;-2.70;73.47
75424;BME280;64005;55.160;36.002;2023-01-26T04:54:58;99812.16;;;-2.67;73.60
75424;BME280;64005;55.160;36.002;2023-01-26T04:57:26;99812.97;;;-2.66;73.74
75424;BME280;64005;55.160;36.002;2023-01-26T04:59:53;99827.16;;;-2.64;73.84
75424;BME280;64005;55.160;36.002;2023-01-26T05:02:21;99824.44;;;-2.64;73.62
75424;BME280;64005;55.160;36.002;2023-01-26T05:04:48;99817.13;;;-2.64;73.65
75424;BME280;64005;55.160;36.002;2023-01-26T05:07:18;99816.88;;;-2.62;73.57
75424;BME280;64005;55.160;36.002;2023-01-26T05:09:45;99811.44;;;-2.62;73.73
75424;BME280;64005;55.160;36.002;2023-01-26T05:12:12;99815.44;;;-2.65;73.71
75424;BME280;64005;55.160;36.002;2023-01-26T05:14:57;99818.88;;;-2.69;73.94
75424;BME280;64005;55.160;36.002;2023-01-26T05:17:25;99824.94;;;-2.67;74.31
75424;BME280;64005;55.160;36.002;2023-01-26T05:19:52;99827.16;;;-2.64;73.94
75424;BME280;64005;55.160;36.002;2023-01-26T05:22:21;99827.16;;;-2.64;73.70
75424;BME280;64005;55.160;36.002;2023-01-26T05:24:49;99826.72;;;-2.61;73.56
75424;BME280;64005;55.160;36.002;2023-01-26T05:27:16;99820.81;;;-2.58;73.88
75424;BME280;64005;55.160;36.002;2023-01-26T05:29:47;99820.56;;;-2.57;73.66
75424;BME280;64005;55.160;36.002;2023-01-26T05:32:15;99819.75;;;-2.57;73.68
75424;BME280;64005;55.160;36.002;2023-01-26T05:34:42;99814.28;;;-2.57;73.75
75424;BME280;64005;55.160;36.002;2023-01-26T05:37:10;99817.84;;;-2.57;73.61
75424;BME280;64005;55.160;36.002;2023-01-26T05:39:39;99813.25;;;-2.56;73.67
75424;BME280;64005;55.160;36.002;2023-01-26T05:42:06;99808.63;;;-2.56;73.79
75424;BME280;64005;55.160;36.002;2023-01-26T05:44:34;99806.50;;;-2.54;73.65
75424;BME280;64005;55.160;36.002;2023-01-26T05:47:01;99799.63;;;-2.56;73.90
75424;BME280;64005;55.160;36.002;2023-01-26T05:49:29;99803.19;;;-2.56;73.43
75424;BME280;64005;55.160;36.002;2023-01-26T05:51:57;99800.09;;;-2.59;73.89
75424;BME280;64005;55.160;36.002;2023-01-26T05:54:25;99801.50;;;-2.57;73.88
75424;BME280;64005;55.160;36.002;2023-01-26T05:56:54;99801.50;;;-2.57;73.99
75424;BME280;64005;55.160;36.002;2023-01-26T05:59:22;99797.72;;;-2.56;73.77
75424;BME280;64005;55.160;36.002;2023-01-26T06:01:50;99798.56;;;-2.55;73.83
75424;BME280;64005;55.160;36.002;2023-01-26T06:04:17;99802.25;;;-2.50;73.67
75424;BME280;64005;55.160;36.002;2023-01-26T06:06:45;99791.75;;;-2.46;73.40
75424;BME280;64005;55.160;36.002;2023-01-26T06:09:13;99792.09;;;-2.43;73.85
75424;BME280;64005;55.160;36.002;2023-01-26T06:11:40;99787.81;;;-2.38;73.35
75424;BME280;64005;55.160;36.002;2023-01-26T06:14:09;99796.59;;;-2.36;73.47
75424;BME280;64005;55.160;36.002;2023-01-26T06:16:37;99801.72;;;-2.28;73.10
75424;BME280;64005;55.160;36.002;2023-01-26T06:19:05;99798.78;;;-2.27;73.35
75424;BME280;64005;55.160;36.002;2023-01-26T06:21:33;99790.22;;;-2.19;73.29
75424;BME280;64005;55.160;36.002;2023-01-26T06:24:01;99787.41;;;-2.12;73.03
75424;BME280;64005;55.160;36.002;2023-01-26T06:26:28;99785.16;;;-2.04;73.47
75424;BME280;64005;55.160;36.002;2023-01-26T06:28:56;99779.38;;;-1.95;73.20
75424;BME280;64005;55.160;36.002;2023-01-26T06:31:25;99777.00;;;-1.92;72.94
75424;BME280;64005;55.160;36.002;2023-01-26T06:33:55;99778.66;;;-1.91;72.75
75424;BME280;64005;55.160;36.002;2023-01-26T06:36:22;99788.38;;;-1.83;72.48
75424;BME280;64005;55.160;36.002;2023-01-26T06:38:50;99794.56;;;-1.76;72.77
75424;BME280;64005;55.160;36.002;2023-01-26T06:41:18;99787.31;;;-1.71;72.17
75424;BME280;64005;55.160;36.002;2023-01-26T06:43:47;99784.97;;;-1.67;72.21
75424;BME280;64005;55.160;36.002;2023-01-26T06:46:16;99778.78;;;-1.63;72.70
75424;BME280;64005;55.160;36.002;2023-01-26T06:48:46;99756.25;;;-1.58;72.01
75424;BME280;64005;55.160;36.002;2023-01-26T06:51:37;99772.22;;;-1.38;71.86
75424;BME280;64005;55.160;36.002;2023-01-26T06:54:09;99690.47;;;-1.85;71.91
75424;BME280;64005;55.160;36.002;2023-01-26T06:56:37;99773.44;;;-1.34;72.21
75424;BME280;64005;55.160;36.002;2023-01-26T06:59:04;99767.00;;;-1.28;71.65
75424;BME280;64005;55.160;36.002;2023-01-26T07:01:35;99757.25;;;-1.24;71.45
75424;BME280;64005;55.160;36.002;2023-01-26T07:04:04;99762.91;;;-1.02;71.67
75424;BME280;64005;55.160;36.002;2023-01-26T07:06:32;99770.44;;;-0.93;71.25
75424;BME280;64005;55.160;36.002;2023-01-26T07:08:59;99765.44;;;-0.84;70.69
75424;BME280;64005;55.160;36.002;2023-01-26T07:11:27;99771.59;;;-0.77;71.22
75424;BME280;64005;55.160;36.002;2023-01-26T07:13:57;99770.63;;;-0.71;70.78
75424;BME280;64005;55.160;36.002;2023-01-26T07:16:25;99652.66;;;-1.41;70.42
75424;BME280;64005;55.160;36.002;2023-01-26T07:18:53;99758.38;;;-0.68;70.09
75424;BME280;64005;55.160;36.002;2023-01-26T07:21:23;99767.09;;;-0.55;70.51
75424;BME280;64005;55.160;36.002;2023-01-26T07:23:51;99765.22;;;-0.54;69.95
75424;BME280;64005;55.160;36.002;2023-01-26T07:26:19;99761.13;;;-0.52;70.89
75424;BME280;64005;55.160;36.002;2023-01-26T07:28:47;99753.06;;;-0.47;69.80
75424;BME280;64005;55.160;36.002;2023-01-26T07:31:14;99764.63;;;-0.40;70.28
75424;BME280;64005;55.160;36.002;2023-01-26T07:33:42;99764.47;;;-0.33;70.21
75424;BME280;64005;55.160;36.002;2023-01-26T07:36:09;99765.97;;;-0.25;70.24
75424;BME280;64005;55.160;36.002;2023-01-26T07:38:38;99765.56;;;-0.17;69.30
75424;BME280;64005;55.160;36.002;2023-01-26T07:41:08;99760.69;;;-0.15;69.99
75424;BME280;64005;55.160;36.002;2023-01-26T07:43:36;99761.59;;;-0.10;69.66
75424;BME280;64005;55.160;36.002;2023-01-26T07:46:05;99761.09;;;-0.07;69.32
75424;BME280;64005;55.160;36.002;2023-01-26T07:48:33;99764.75;;;-0.01;69.35
75424;BME280;64005;55.160;36.002;2023-01-26T07:51:02;99681.47;;;-0.44;68.97
75424;BME280;64005;55.160;36.002;2023-01-26T07:53:31;99756.63;;;0.04;69.03
75424;BME280;64005;55.160;36.002;2023-01-26T07:59:52;99756.78;;;0.31;69.11
75424;BME280;64005;55.160;36.002;2023-01-26T08:02:19;99761.25;;;0.37;67.95
75424;BME280;64005;55.160;36.002;2023-01-26T08:05:02;99759.66;;;0.41;68.41
75424;BME280;64005;55.160;36.002;2023-01-26T08:07:30;99758.00;;;0.40;68.58
75424;BME280;64005;55.160;36.002;2023-01-26T08:09:57;99763.75;;;0.38;68.41
75424;BME280;64005;55.160;36.002;2023-01-26T08:12:27;99761.19;;;0.54;68.03
75424;BME280;64005;55.160;36.002;2023-01-26T08:20:33;99750.91;;;0.61;68.37
75424;BME280;64005;55.160;36.002;2023-01-26T08:23:01;99743.97;;;0.53;67.59
75424;BME280;64005;55.160;36.002;2023-01-26T08:25:28;99746.88;;;0.47;68.24
75424;BME280;64005;55.160;36.002;2023-01-26T08:27:59;99755.84;;;0.42;67.55
75424;BME280;64005;55.160;36.002;2023-01-26T08:30:28;99752.13;;;0.31;68.12
75424;BME280;64005;55.160;36.002;2023-01-26T08:32:55;99753.88;;;0.21;68.82
75424;BME280;64005;55.160;36.002;2023-01-26T08:35:23;99736.06;;;0.18;68.29
75424;BME280;64005;55.160;36.002;2023-01-26T08:37:50;99745.66;;;0.21;68.70
75424;BME280;64005;55.160;36.002;2023-01-26T08:40:18;99736.56;;;0.15;68.29
75424;BME280;64005;55.160;36.002;2023-01-26T08:42:45;99744.59;;;0.22;68.63
75424;BME280;64005;55.160;36.002;2023-01-26T08:45:14;99730.59;;;0.18;67.73
75424;BME280;64005;55.160;36.002;2023-01-26T08:47:42;99728.94;;;0.17;68.73
75424;BME280;64005;55.160;36.002;2023-01-26T08:50:10;99731.97;;;0.21;67.80
75424;BME280;64005;55.160;36.002;2023-01-26T08:52:38;99734.41;;;0.17;67.70
75424;BME280;64005;55.160;36.002;2023-01-26T08:55:06;99736.31;;;0.17;67.81
75424;BME280;64005;55.160;36.002;2023-01-26T08:57:33;99728.69;;;0.19;68.77
75424;BME280;64005;55.160;36.002;2023-01-26T09:00:01;99709.53;;;0.19;67.47
75424;BME280;64005;55.160;36.002;2023-01-26T09:02:32;99708.59;;;0.30;67.70
75424;BME280;64005;55.160;36.002;2023-01-26T09:04:59;99708.59;;;0.30;67.83
75424;BME280;64005;55.160;36.002;2023-01-26T09:07:27;99712.41;;;0.29;67.53
75424;BME280;64005;55.160;36.002;2023-01-26T09:09:54;99707.84;;;0.34;68.01
75424;BME280;64005;55.160;36.002;2023-01-26T09:12:21;99711.41;;;0.35;67.44
75424;BME280;64005;55.160;36.002;2023-01-26T09:14:49;99706.28;;;0.38;68.35
75424;BME280;64005;55.160;36.002;2023-01-26T09:17:16;99701.28;;;0.35;68.35
75424;BME280;64005;55.160;36.002;2023-01-26T09:19:46;99691.31;;;0.46;67.92
75424;BME280;64005;55.160;36.002;2023-01-26T09:24:48;99690.41;;;0.40;67.72
75424;BME280;64005;55.160;36.002;2023-01-26T09:27:15;99695.13;;;0.45;67.62
75424;BME280;64005;55.160;36.002;2023-01-26T09:29:43;99683.84;;;0.42;67.48
75424;BME280;64005;55.160;36.002;2023-01-26T09:32:10;99692.66;;;0.44;67.93
75424;BME280;64005;55.160;36.002;2023-01-26T09:34:38;99687.59;;;0.35;67.72
75424;BME280;64005;55.160;36.002;2023-01-26T09:37:07;99689.56;;;0.40;67.85
75424;BME280;64005;55.160;36.002;2023-01-26T09:39:34;99694.38;;;0.50;67.89
75424;BME280;64005;55.160;36.002;2023-01-26T09:42:20;99696.66;;;0.58;66.85
75424;BME280;64005;55.160;36.002;2023-01-26T09:45:01;99681.31;;;0.57;67.13
75424;BME280;64005;55.160;36.002;2023-01-26T09:47:42;99691.59;;;0.66;66.57
75424;BME280;64005;55.160;36.002;2023-01-26T09:50:15;99681.72;;;0.65;66.92
75424;BME280;64005;55.160;36.002;2023-01-26T09:52:52;99678.59;;;0.78;67.16
75424;BME280;64005;55.160;36.002;2023-01-26T09:55:22;99678.69;;;0.89;66.79
75424;BME280;64005;55.160;36.002;2023-01-26T09:57:52;99668.75;;;0.83;67.04
75424;BME280;64005;55.160;36.002;2023-01-26T10:00:25;99671.94;;;0.74;66.77
75424;BME280;64005;55.160;36.002;2023-01-26T10:03:04;99658.84;;;0.76;66.63
75424;BME280;64005;55.160;36.002;2023-01-26T10:05:43;99656.94;;;0.77;66.52
75424;BME280;64005;55.160;36.002;2023-01-26T10:08:15;99647.94;;;0.82;66.64
75424;BME280;64005;55.160;36.002;2023-01-26T10:10:47;99679.03;;;0.92;66.86
75424;BME280;64005;55.160;36.002;2023-01-26T10:13:16;99667.28;;;0.97;66.52
75424;BME280;64005;55.160;36.002;2023-01-26T10:15:49;99673.00;;;0.95;66.15
75424;BME280;64005;55.160;36.002;2023-01-26T10:18:21;99663.91;;;0.90;66.75
75424;BME280;64005;55.160;36.002;2023-01-26T10:20:52;99660.28;;;0.84;66.52
75424;BME280;64005;55.160;36.002;2023-01-26T10:23:26;99664.53;;;0.97;66.99
75424;BME280;64005;55.160;36.002;2023-01-26T10:31:10;99658.44;;;0.68;67.06
75424;BME280;64005;55.160;36.002;2023-01-26T10:33:42;99563.72;;;0.18;67.02
75424;BME280;64005;55.160;36.002;2023-01-26T10:36:22;99652.72;;;0.69;66.99
75424;BME280;64005;55.160;36.002;2023-01-26T10:38:52;99642.31;;;0.66;66.82
75424;BME280;64005;55.160;36.002;2023-01-26T10:43:56;99580.50;;;0.27;66.07
75424;BME280;64005;55.160;36.002;2023-01-26T10:46:28;99585.66;;;0.23;66.48
75424;BME280;64005;55.160;36.002;2023-01-26T10:48:56;99643.38;;;0.65;66.72
75424;BME280;64005;55.160;36.002;2023-01-26T10:51:27;99651.66;;;0.70;65.95
75424;BME280;64005;55.160;36.002;2023-01-26T10:54:20;99644.25;;;0.71;66.80
75424;BME280;64005;55.160;36.002;2023-01-26T10:56:50;99637.72;;;0.72;66.92
75424;BME280;64005;55.160;36.002;2023-01-26T10:59:29;99644.56;;;0.74;66.25
75424;BME280;64005;55.160;36.002;2023-01-26T11:02:01;99637.44;;;0.73;66.77
75424;BME280;64005;55.160;36.002;2023-01-26T11:04:30;99612.59;;;0.53;66.14
75424;BME280;64005;55.160;36.002;2023-01-26T11:07:14;99634.63;;;0.68;66.69
75424;BME280;64005;55.160;36.002;2023-01-26T11:09:52;99641.72;;;0.64;66.11
75424;BME280;64005;55.160;36.002;2023-01-26T11:12:21;99634.53;;;0.58;65.88
75424;BME280;64005;55.160;36.002;2023-01-26T11:15:02;99641.34;;;0.56;65.99
75424;BME280;64005;55.160;36.002;2023-01-26T11:20:46;99629.31;;;0.35;66.96
75424;BME280;64005;55.160;36.002;2023-01-26T11:23:24;99635.94;;;0.39;66.34
75424;BME280;64005;55.160;36.002;2023-01-26T11:26:14;99633.94;;;0.34;67.00
75424;BME280;64005;55.160;36.002;2023-01-26T11:28:55;99619.72;;;0.32;67.10
75424;BME280;64005;55.160;36.002;2023-01-26T11:31:34;99618.56;;;0.28;66.82
75424;BME280;64005;55.160;36.002;2023-01-26T11:34:17;99623.66;;;0.20;66.97
75424;BME280;64005;55.160;36.002;2023-01-26T11:36:54;99610.78;;;0.20;67.16
75424;BME280;64005;55.160;36.002;2023-01-26T11:39:29;99633.50;;;0.21;66.83
75424;BME280;64005;55.160;36.002;2023-01-26T11:42:09;99583.44;;;-0.02;67.50
75424;BME280;64005;55.160;36.002;2023-01-26T11:45:02;99625.69;;;0.29;67.59
75424;BME280;64005;55.160;36.002;2023-01-26T11:47:44;99596.41;;;0.08;66.62
75424;BME280;64005;55.160;36.002;2023-01-26T11:50:31;99633.50;;;0.21;66.54
75424;BME280;64005;55.160;36.002;2023-01-26T11:53:15;99592.38;;;-0.06;67.33
75424;BME280;64005;55.160;36.002;2023-01-26T11:55:57;99628.31;;;0.19;67.21
75424;BME280;64005;55.160;36.002;2023-01-26T11:58:33;99622.09;;;0.07;67.22
75424;BME280;64005;55.160;36.002;2023-01-26T12:01:07;99614.03;;;0.17;66.99
75424;BME280;64005;55.160;36.002;2023-01-26T12:03:41;99580.69;;;-0.02;67.28
75424;BME280;64005;55.160;36.002;2023-01-26T12:06:16;99620.41;;;0.23;67.31
75424;BME280;64005;55.160;36.002;2023-01-26T12:08:50;99613.84;;;0.24;67.81
75424;BME280;64005;55.160;36.002;2023-01-26T12:11:22;99607.25;;;0.20;67.12
75424;BME280;64005;55.160;36.002;2023-01-26T12:14:01;99614.88;;;0.18;67.09
75424;BME280;64005;55.160;36.002;2023-01-26T12:16:36;99593.53;;;-0.02;66.88
75424;BME280;64005;55.160;36.002;2023-01-26T12:19:12;99614.22;;;0.11;67.39
75424;BME280;64005;55.160;36.002;2023-01-26T12:21:44;99617.97;;;0.05;67.81
75424;BME280;64005;55.160;36.002;2023-01-26T12:24:17;99584.63;;;-0.14;67.79
75424;BME280;64005;55.160;36.002;2023-01-26T12:26:49;99568.84;;;-0.29;67.63
75424;BME280;64005;55.160;36.002;2023-01-26T12:29:24;99593.31;;;-0.17;68.13
75424;BME280;64005;55.160;36.002;2023-01-26T12:31:57;99617.75;;;-0.11;68.34
75424;BME280;64005;55.160;36.002;2023-01-26T12:34:30;99605.50;;;-0.08;68.28
75424;BME280;64005;55.160;36.002;2023-01-26T12:37:11;99592.31;;;-0.11;68.23
75424;BME280;64005;55.160;36.002;2023-01-26T12:39:52;99587.50;;;-0.04;67.14
75424;BME280;64005;55.160;36.002;2023-01-26T12:42:27;99595.69;;;-0.04;67.81
75424;BME280;64005;55.160;36.002;2023-01-26T12:45:00;99530.38;;;-0.61;67.44
75424;BME280;64005;55.160;36.002;2023-01-26T12:47:33;99607.00;;;-0.17;67.34
75424;BME280;64005;55.160;36.002;2023-01-26T12:50:07;99542.47;;;-0.57;68.19
75424;BME280;64005;55.160;36.002;2023-01-26T12:52:42;99603.28;;;-0.28;67.72
75424;BME280;64005;55.160;36.002;2023-01-26T12:55:15;99599.38;;;-0.32;68.41
75424;BME280;64005;55.160;36.002;2023-01-26T12:57:50;99597.19;;;-0.35;68.26
75424;BME280;64005;55.160;36.002;2023-01-26T13:00:22;99590.06;;;-0.36;68.62
75424;BME280;64005;55.160;36.002;2023-01-26T13:02:54;99588.91;;;-0.40;68.41
75424;BME280;64005;55.160;36.002;2023-01-26T13:05:28;99588.81;;;-0.45;68.21
75424;BME280;64005;55.160;36.002;2023-01-26T13:07:56;99593.97;;;-0.49;67.98
75424;BME280;64005;55.160;36.002;2023-01-26T13:10:27;99586.84;;;-0.50;68.54
75424;BME280;64005;55.160;36.002;2023-01-26T13:12:58;99554.56;;;-0.69;68.47
75424;BME280;64005;55.160;36.002;2023-01-26T13:15:29;99582.84;;;-0.59;68.15
75424;BME280;64005;55.160;36.002;2023-01-26T13:17:58;99559.13;;;-0.75;68.68
75424;BME280;64005;55.160;36.002;2023-01-26T13:23:40;99592.47;;;-0.73;68.63
75424;BME280;64005;55.160;36.002;2023-01-26T13:29:31;99584.50;;;-0.91;68.58
75424;BME280;64005;55.160;36.002;2023-01-26T13:35:09;99589.16;;;-0.92;68.51
75424;BME280;64005;55.160;36.002;2023-01-26T13:37:45;99583.28;;;-1.00;69.04
75424;BME280;64005;55.160;36.002;2023-01-26T13:40:20;99590.81;;;-1.07;69.65
75424;BME280;64005;55.160;36.002;2023-01-26T13:42:53;99546.25;;;-1.41;69.64
75424;BME280;64005;55.160;36.002;2023-01-26T13:45:30;99503.22;;;-1.68;69.20
75424;BME280;64005;55.160;36.002;2023-01-26T13:48:01;99541.78;;;-1.47;69.30